Portada
METAR-TAF:

METAR-TAF

Aeroports :

Aeroport Internacional de Belfast

Belfast, Irlanda del Nord

latitud: 54-39N, longitud: 006-13W, altitud: 81 m

Observació

L'informe es va fer fa 27 minuts, a les 22:20 UTC
Vent 4 kt del Oest/Sud-Oest
Temperatura 7°C
Humitat 93%
Pressió 1016 hPa
Visibilitat 10 km o més
sense núvols per sota de 1500 mi sense presència de cumulonimbus.

METAR: EGAA 282220Z 25004KT CAVOK 07/06 Q1016

Hora: 23:47 (22:47 UTC)

Pronòstic

L'informe es va fer fa 5 hores i 51 minuts, a les 16:56 UTC
Pronòstic vàlid del 28 a les 18 UTC al 29 a les 18 UTC
Vent 10 kt del Oest/Nord-Oest
Visibilitat 10 km o més
Escasses núvols a una alçada de 3500 ft
Evolucionant progressivament
l' 28 a les 20 UTC al 28 a les 24 UTC
Vent 5 kt del Sud/Sud-Oest
Probabilitat 30%
l' 29 a les 03 UTC al 29 a les 08 UTC
Visibilitat: 0300 m
Cel ennuvolat a una alçada de 100 ft
boira

TAF: EGAA 281656Z 2818/2918 29010KT 9999 FEW035 BECMG 2820/2824 21005KT PROB30 2903/2908 0300 FG BKN001

Observacions i pronòstics meteorològics de més de 4000 aeroports (METAR i TAF).

Les estacions disponibles són els punts grocs i vermells al mapa.

Posi el ratolí al punt desitjat per veure el nom de l'estació.

Feu clic per veure les observacions i els pronòstics meteorològics.

Per canviar el mapa: feu clic els botons verds amb una creu de color negre per apropar; al botó verd amb un guió per allunyar la imatge; o en les fletxes verdes per a mapes adjacents.


METAR-TAF: